sensor_id;sensor_type;location;lat;lon;timestamp;temperature;humidity
72326;DHT22;60278;47.980;18.780;2022-09-14T00:02:27;14.69;86.24
72326;DHT22;60278;47.980;18.780;2022-09-14T00:06:05;14.61;86.39
72326;DHT22;60278;47.980;18.780;2022-09-14T00:09:37;14.59;86.10
72326;DHT22;60278;47.980;18.780;2022-09-14T00:13:09;14.42;87.34
72326;DHT22;60278;47.980;18.780;2022-09-14T00:16:40;14.47;87.16
72326;DHT22;60278;47.980;18.780;2022-09-14T00:20:12;14.40;87.35
72326;DHT22;60278;47.980;18.780;2022-09-14T00:23:43;14.44;87.11
72326;DHT22;60278;47.980;18.780;2022-09-14T00:27:14;14.43;86.88
72326;DHT22;60278;47.980;18.780;2022-09-14T00:30:45;14.39;86.80
72326;DHT22;60278;47.980;18.780;2022-09-14T00:34:17;14.32;87.14
72326;DHT22;60278;47.980;18.780;2022-09-14T00:37:49;14.32;87.30
72326;DHT22;60278;47.980;18.780;2022-09-14T00:41:23;14.36;87.00
72326;DHT22;60278;47.980;18.780;2022-09-14T00:45:01;14.29;86.78
72326;DHT22;60278;47.980;18.780;2022-09-14T00:48:33;14.33;87.13
72326;DHT22;60278;47.980;18.780;2022-09-14T00:52:07;14.18;87.28
72326;DHT22;60278;47.980;18.780;2022-09-14T00:55:39;14.09;87.78
72326;DHT22;60278;47.980;18.780;2022-09-14T00:59:19;14.04;88.16
72326;DHT22;60278;47.980;18.780;2022-09-14T01:02:51;14.01;88.05
72326;DHT22;60278;47.980;18.780;2022-09-14T01:14:26;14.05;88.02
72326;DHT22;60278;47.980;18.780;2022-09-14T01:21:54;13.85;88.96
72326;DHT22;60278;47.980;18.780;2022-09-14T01:36:23;13.88;88.84
72326;DHT22;60278;47.980;18.780;2022-09-14T01:40:02;13.85;88.63
72326;DHT22;60278;47.980;18.780;2022-09-14T01:43:38;13.74;88.79
72326;DHT22;60278;47.980;18.780;2022-09-14T01:47:25;13.61;88.93
72326;DHT22;60278;47.980;18.780;2022-09-14T01:50:59;13.70;88.95
72326;DHT22;60278;47.980;18.780;2022-09-14T01:54:40;13.61;88.92
72326;DHT22;60278;47.980;18.780;2022-09-14T01:58:37;13.44;89.83
72326;DHT22;60278;47.980;18.780;2022-09-14T02:02:26;13.44;89.72
72326;DHT22;60278;47.980;18.780;2022-09-14T02:06:15;13.47;89.46
72326;DHT22;60278;47.980;18.780;2022-09-14T02:09:50;13.39;89.77
72326;DHT22;60278;47.980;18.780;2022-09-14T02:13:23;13.37;89.28
72326;DHT22;60278;47.980;18.780;2022-09-14T02:16:54;13.34;89.57
72326;DHT22;60278;47.980;18.780;2022-09-14T02:20:31;13.24;89.77
72326;DHT22;60278;47.980;18.780;2022-09-14T02:24:03;13.31;89.57
72326;DHT22;60278;47.980;18.780;2022-09-14T02:27:34;13.26;89.65
72326;DHT22;60278;47.980;18.780;2022-09-14T02:38:53;13.31;89.56
72326;DHT22;60278;47.980;18.780;2022-09-14T02:42:46;13.36;89.63
72326;DHT22;60278;47.980;18.780;2022-09-14T02:51:23;13.43;89.12
72326;DHT22;60278;47.980;18.780;2022-09-14T02:54:43;13.37;89.29
72326;DHT22;60278;47.980;18.780;2022-09-14T02:58:16;13.30;89.05
72326;DHT22;60278;47.980;18.780;2022-09-14T03:01:47;13.39;89.14
72326;DHT22;60278;47.980;18.780;2022-09-14T03:05:18;13.44;88.90
72326;DHT22;60278;47.980;18.780;2022-09-14T03:08:49;13.48;89.05
72326;DHT22;60278;47.980;18.780;2022-09-14T03:12:20;13.47;89.14
72326;DHT22;60278;47.980;18.780;2022-09-14T03:15:51;13.50;89.08
72326;DHT22;60278;47.980;18.780;2022-09-14T03:19:22;13.50;89.08
72326;DHT22;60278;47.980;18.780;2022-09-14T03:22:53;13.48;89.17
72326;DHT22;60278;47.980;18.780;2022-09-14T03:26:25;13.54;88.76
72326;DHT22;60278;47.980;18.780;2022-09-14T03:29:57;13.51;88.76
72326;DHT22;60278;47.980;18.780;2022-09-14T03:33:28;13.51;88.80
72326;DHT22;60278;47.980;18.780;2022-09-14T03:36:59;13.67;88.33
72326;DHT22;60278;47.980;18.780;2022-09-14T03:40:30;13.61;88.54
72326;DHT22;60278;47.980;18.780;2022-09-14T03:44:01;13.72;88.01
72326;DHT22;60278;47.980;18.780;2022-09-14T03:47:32;13.70;88.20
72326;DHT22;60278;47.980;18.780;2022-09-14T03:51:05;13.65;88.16
72326;DHT22;60278;47.980;18.780;2022-09-14T03:54:36;13.62;88.22
72326;DHT22;60278;47.980;18.780;2022-09-14T03:58:07;13.57;88.59
72326;DHT22;60278;47.980;18.780;2022-09-14T04:01:38;13.39;89.31
72326;DHT22;60278;47.980;18.780;2022-09-14T04:05:09;13.31;89.25
72326;DHT22;60278;47.980;18.780;2022-09-14T04:08:41;13.43;89.17
72326;DHT22;60278;47.980;18.780;2022-09-14T04:12:12;13.47;88.62
72326;DHT22;60278;47.980;18.780;2022-09-14T04:15:43;13.47;88.74
72326;DHT22;60278;47.980;18.780;2022-09-14T04:19:14;13.26;89.47
72326;DHT22;60278;47.980;18.780;2022-09-14T04:22:45;13.61;88.81
72326;DHT22;60278;47.980;18.780;2022-09-14T04:26:18;13.46;89.20
72326;DHT22;60278;47.980;18.780;2022-09-14T04:29:50;13.44;88.86
72326;DHT22;60278;47.980;18.780;2022-09-14T04:33:21;13.44;89.44
72326;DHT22;60278;47.980;18.780;2022-09-14T04:36:52;13.44;89.39
72326;DHT22;60278;47.980;18.780;2022-09-14T04:40:24;13.60;88.48
72326;DHT22;60278;47.980;18.780;2022-09-14T04:43:55;13.64;88.65
72326;DHT22;60278;47.980;18.780;2022-09-14T04:47:27;13.68;88.33
72326;DHT22;60278;47.980;18.780;2022-09-14T04:51:08;13.74;88.09
72326;DHT22;60278;47.980;18.780;2022-09-14T04:54:40;13.81;87.50
72326;DHT22;60278;47.980;18.780;2022-09-14T04:58:11;13.77;87.67
72326;DHT22;60278;47.980;18.780;2022-09-14T05:01:45;13.86;87.94
72326;DHT22;60278;47.980;18.780;2022-09-14T05:05:17;13.85;87.66
72326;DHT22;60278;47.980;18.780;2022-09-14T05:08:48;13.79;87.51
72326;DHT22;60278;47.980;18.780;2022-09-14T05:12:20;13.79;87.94
72326;DHT22;60278;47.980;18.780;2022-09-14T05:15:51;13.91;87.65
72326;DHT22;60278;47.980;18.780;2022-09-14T05:19:22;13.91;87.52
72326;DHT22;60278;47.980;18.780;2022-09-14T05:22:53;13.97;88.18
72326;DHT22;60278;47.980;18.780;2022-09-14T05:26:25;13.99;88.02
72326;DHT22;60278;47.980;18.780;2022-09-14T05:29:56;14.06;88.25
72326;DHT22;60278;47.980;18.780;2022-09-14T05:33:27;14.30;87.19
72326;DHT22;60278;47.980;18.780;2022-09-14T05:36:59;14.30;87.00
72326;DHT22;60278;47.980;18.780;2022-09-14T05:40:30;14.43;86.74
72326;DHT22;60278;47.980;18.780;2022-09-14T05:44:02;14.49;86.59
72326;DHT22;60278;47.980;18.780;2022-09-14T05:47:33;14.52;86.46
72326;DHT22;60278;47.980;18.780;2022-09-14T05:51:06;14.53;86.64
72326;DHT22;60278;47.980;18.780;2022-09-14T05:54:37;14.80;84.92
72326;DHT22;60278;47.980;18.780;2022-09-14T05:58:08;14.81;85.29
72326;DHT22;60278;47.980;18.780;2022-09-14T06:01:40;14.90;85.11
72326;DHT22;60278;47.980;18.780;2022-09-14T06:05:11;14.87;84.76
72326;DHT22;60278;47.980;18.780;2022-09-14T06:08:42;14.97;85.02
72326;DHT22;60278;47.980;18.780;2022-09-14T06:17:13;14.85;84.96
72326;DHT22;60278;47.980;18.780;2022-09-14T06:20:51;14.91;85.35
72326;DHT22;60278;47.980;18.780;2022-09-14T06:24:23;15.02;84.92
72326;DHT22;60278;47.980;18.780;2022-09-14T06:27:54;15.02;84.92
72326;DHT22;60278;47.980;18.780;2022-09-14T06:31:26;15.17;84.47
72326;DHT22;60278;47.980;18.780;2022-09-14T06:34:57;15.17;84.02
72326;DHT22;60278;47.980;18.780;2022-09-14T06:38:29;15.63;82.61
72326;DHT22;60278;47.980;18.780;2022-09-14T06:42:00;15.79;81.32
72326;DHT22;60278;47.980;18.780;2022-09-14T06:45:32;15.79;82.35
72326;DHT22;60278;47.980;18.780;2022-09-14T06:49:14;15.55;83.18
72326;DHT22;60278;47.980;18.780;2022-09-14T06:52:50;15.65;83.63
72326;DHT22;60278;47.980;18.780;2022-09-14T06:56:39;15.76;82.33
72326;DHT22;60278;47.980;18.780;2022-09-14T07:00:11;15.74;83.28
72326;DHT22;60278;47.980;18.780;2022-09-14T07:03:42;15.78;85.62
72326;DHT22;60278;47.980;18.780;2022-09-14T07:07:21;15.76;84.81
72326;DHT22;60278;47.980;18.780;2022-09-14T07:11:00;15.90;85.14
72326;DHT22;60278;47.980;18.780;2022-09-14T07:14:43;16.04;83.61
72326;DHT22;60278;47.980;18.780;2022-09-14T07:18:14;16.14;83.78
72326;DHT22;60278;47.980;18.780;2022-09-14T07:21:45;16.09;83.29
72326;DHT22;60278;47.980;18.780;2022-09-14T07:25:17;16.18;84.18
72326;DHT22;60278;47.980;18.780;2022-09-14T07:28:55;16.41;83.34
72326;DHT22;60278;47.980;18.780;2022-09-14T07:32:26;16.14;83.42
72326;DHT22;60278;47.980;18.780;2022-09-14T07:36:07;16.38;83.39
72326;DHT22;60278;47.980;18.780;2022-09-14T07:39:39;16.38;84.21
72326;DHT22;60278;47.980;18.780;2022-09-14T07:43:10;16.38;83.93
72326;DHT22;60278;47.980;18.780;2022-09-14T07:46:43;16.35;85.55
72326;DHT22;60278;47.980;18.780;2022-09-14T07:50:14;16.71;84.97
72326;DHT22;60278;47.980;18.780;2022-09-14T07:53:45;16.67;84.85
72326;DHT22;60278;47.980;18.780;2022-09-14T07:57:16;16.54;85.23
72326;DHT22;60278;47.980;18.780;2022-09-14T08:00:48;16.89;84.54
72326;DHT22;60278;47.980;18.780;2022-09-14T08:04:18;17.20;84.67
72326;DHT22;60278;47.980;18.780;2022-09-14T08:07:56;17.34;84.01
72326;DHT22;60278;47.980;18.780;2022-09-14T08:11:29;17.64;81.85
72326;DHT22;60278;47.980;18.780;2022-09-14T08:15:01;17.77;81.18
72326;DHT22;60278;47.980;18.780;2022-09-14T08:18:33;17.40;82.41
72326;DHT22;60278;47.980;18.780;2022-09-14T08:22:04;17.40;83.54
72326;DHT22;60278;47.980;18.780;2022-09-14T08:25:36;17.41;84.10
72326;DHT22;60278;47.980;18.780;2022-09-14T08:29:07;17.75;82.69
72326;DHT22;60278;47.980;18.780;2022-09-14T08:32:38;17.80;83.76
72326;DHT22;60278;47.980;18.780;2022-09-14T08:36:12;17.53;82.60
72326;DHT22;60278;47.980;18.780;2022-09-14T08:39:43;17.66;82.41
72326;DHT22;60278;47.980;18.780;2022-09-14T08:43:15;17.84;82.56
72326;DHT22;60278;47.980;18.780;2022-09-14T08:46:52;18.11;79.64
72326;DHT22;60278;47.980;18.780;2022-09-14T08:50:26;18.19;81.35
72326;DHT22;60278;47.980;18.780;2022-09-14T08:53:57;18.11;81.32
72326;DHT22;60278;47.980;18.780;2022-09-14T08:57:47;18.15;81.84
72326;DHT22;60278;47.980;18.780;2022-09-14T09:05:24;17.88;82.31
72326;DHT22;60278;47.980;18.780;2022-09-14T09:09:18;17.74;81.68
72326;DHT22;60278;47.980;18.780;2022-09-14T09:12:55;17.49;82.07
72326;DHT22;60278;47.980;18.780;2022-09-14T09:16:27;17.15;84.90
72326;DHT22;60278;47.980;18.780;2022-09-14T09:20:20;16.99;86.34
72326;DHT22;60278;47.980;18.780;2022-09-14T09:23:56;17.08;87.62
72326;DHT22;60278;47.980;18.780;2022-09-14T09:27:28;17.47;86.59
72326;DHT22;60278;47.980;18.780;2022-09-14T09:31:05;17.92;84.97
72326;DHT22;60278;47.980;18.780;2022-09-14T09:34:56;18.12;85.05
72326;DHT22;60278;47.980;18.780;2022-09-14T09:38:44;18.30;86.38
72326;DHT22;60278;47.980;18.780;2022-09-14T09:42:22;18.30;84.38
72326;DHT22;60278;47.980;18.780;2022-09-14T09:45:56;18.40;84.66
72326;DHT22;60278;47.980;18.780;2022-09-14T09:49:30;18.25;85.93
72326;DHT22;60278;47.980;18.780;2022-09-14T09:53:01;18.36;85.00
72326;DHT22;60278;47.980;18.780;2022-09-14T09:56:36;18.55;84.76
72326;DHT22;60278;47.980;18.780;2022-09-14T10:00:20;18.22;85.85
72326;DHT22;60278;47.980;18.780;2022-09-14T10:04:05;18.32;86.00
72326;DHT22;60278;47.980;18.780;2022-09-14T10:07:39;18.66;84.86
72326;DHT22;60278;47.980;18.780;2022-09-14T10:11:34;18.42;86.95
72326;DHT22;60278;47.980;18.780;2022-09-14T10:15:29;18.24;87.36
72326;DHT22;60278;47.980;18.780;2022-09-14T10:19:01;18.40;87.36
72326;DHT22;60278;47.980;18.780;2022-09-14T10:22:34;18.38;87.41
72326;DHT22;60278;47.980;18.780;2022-09-14T10:29:43;18.76;86.35
72326;DHT22;60278;47.980;18.780;2022-09-14T10:33:14;19.07;85.51
72326;DHT22;60278;47.980;18.780;2022-09-14T10:36:52;19.08;85.79
72326;DHT22;60278;47.980;18.780;2022-09-14T10:40:35;19.01;85.24
72326;DHT22;60278;47.980;18.780;2022-09-14T10:44:27;19.32;85.59
72326;DHT22;60278;47.980;18.780;2022-09-14T11:00:12;19.27;82.89
72326;DHT22;60278;47.980;18.780;2022-09-14T11:07:51;19.47;83.71
72326;DHT22;60278;47.980;18.780;2022-09-14T11:11:37;19.59;83.59
72326;DHT22;60278;47.980;18.780;2022-09-14T11:15:23;19.97;80.90
72326;DHT22;60278;47.980;18.780;2022-09-14T11:23:02;20.12;79.86
72326;DHT22;60278;47.980;18.780;2022-09-14T11:26:39;20.14;80.92
72326;DHT22;60278;47.980;18.780;2022-09-14T11:30:29;19.97;80.94
72326;DHT22;60278;47.980;18.780;2022-09-14T11:34:24;20.58;80.45
72326;DHT22;60278;47.980;18.780;2022-09-14T11:38:09;20.81;79.35
72326;DHT22;60278;47.980;18.780;2022-09-14T11:42:04;20.74;80.01
72326;DHT22;60278;47.980;18.780;2022-09-14T11:45:47;20.88;79.20
72326;DHT22;60278;47.980;18.780;2022-09-14T11:49:55;20.75;80.23
72326;DHT22;60278;47.980;18.780;2022-09-14T11:53:25;20.81;77.60
72326;DHT22;60278;47.980;18.780;2022-09-14T11:57:01;20.84;78.54
72326;DHT22;60278;47.980;18.780;2022-09-14T12:00:44;20.98;78.54
72326;DHT22;60278;47.980;18.780;2022-09-14T12:04:16;20.87;80.06
72326;DHT22;60278;47.980;18.780;2022-09-14T12:11:25;21.57;77.31
72326;DHT22;60278;47.980;18.780;2022-09-14T12:15:00;21.26;78.17
72326;DHT22;60278;47.980;18.780;2022-09-14T12:18:35;21.38;79.62
72326;DHT22;60278;47.980;18.780;2022-09-14T12:22:32;21.36;77.40
72326;DHT22;60278;47.980;18.780;2022-09-14T12:29:48;21.84;77.04
72326;DHT22;60278;47.980;18.780;2022-09-14T12:37:27;21.98;75.27
72326;DHT22;60278;47.980;18.780;2022-09-14T12:44:41;21.68;76.49
72326;DHT22;60278;47.980;18.780;2022-09-14T12:56:18;21.28;76.29
72326;DHT22;60278;47.980;18.780;2022-09-14T13:03:45;21.63;75.63
72326;DHT22;60278;47.980;18.780;2022-09-14T13:07:18;21.56;76.35
72326;DHT22;60278;47.980;18.780;2022-09-14T13:10:51;21.22;77.05
72326;DHT22;60278;47.980;18.780;2022-09-14T13:14:24;21.03;76.56
72326;DHT22;60278;47.980;18.780;2022-09-14T13:21:48;20.95;77.73
72326;DHT22;60278;47.980;18.780;2022-09-14T13:25:34;20.82;77.30
72326;DHT22;60278;47.980;18.780;2022-09-14T13:29:06;20.87;77.51
72326;DHT22;60278;47.980;18.780;2022-09-14T13:32:42;21.05;77.65
72326;DHT22;60278;47.980;18.780;2022-09-14T13:36:20;20.95;77.22
72326;DHT22;60278;47.980;18.780;2022-09-14T13:39:53;20.85;77.38
72326;DHT22;60278;47.980;18.780;2022-09-14T13:43:25;20.78;77.80
72326;DHT22;60278;47.980;18.780;2022-09-14T13:46:57;20.77;79.07
72326;DHT22;60278;47.980;18.780;2022-09-14T13:50:28;20.67;78.68
72326;DHT22;60278;47.980;18.780;2022-09-14T13:54:27;20.79;79.10
72326;DHT22;60278;47.980;18.780;2022-09-14T14:05:27;21.32;78.45
72326;DHT22;60278;47.980;18.780;2022-09-14T14:09:07;21.35;78.48
72326;DHT22;60278;47.980;18.780;2022-09-14T14:12:41;21.42;77.84
72326;DHT22;60278;47.980;18.780;2022-09-14T14:16:19;21.59;77.71
72326;DHT22;60278;47.980;18.780;2022-09-14T14:19:52;21.64;77.21
72326;DHT22;60278;47.980;18.780;2022-09-14T14:23:24;21.74;78.43
72326;DHT22;60278;47.980;18.780;2022-09-14T14:26:56;21.81;77.67
72326;DHT22;60278;47.980;18.780;2022-09-14T14:30:28;21.88;77.70
72326;DHT22;60278;47.980;18.780;2022-09-14T14:34:09;21.91;77.31
72326;DHT22;60278;47.980;18.780;2022-09-14T14:37:40;21.81;77.44
72326;DHT22;60278;47.980;18.780;2022-09-14T14:41:16;21.80;78.33
72326;DHT22;60278;47.980;18.780;2022-09-14T14:44:48;21.90;77.35
72326;DHT22;60278;47.980;18.780;2022-09-14T14:48:19;22.04;77.16
72326;DHT22;60278;47.980;18.780;2022-09-14T14:51:50;22.29;76.17
72326;DHT22;60278;47.980;18.780;2022-09-14T14:55:23;22.22;76.73
72326;DHT22;60278;47.980;18.780;2022-09-14T14:58:54;21.94;77.31
72326;DHT22;60278;47.980;18.780;2022-09-14T15:02:25;21.81;77.36
72326;DHT22;60278;47.980;18.780;2022-09-14T15:05:56;21.56;77.99
72326;DHT22;60278;47.980;18.780;2022-09-14T15:09:28;21.56;78.23
72326;DHT22;60278;47.980;18.780;2022-09-14T15:12:59;21.50;77.38
72326;DHT22;60278;47.980;18.780;2022-09-14T15:16:30;21.29;78.58
72326;DHT22;60278;47.980;18.780;2022-09-14T15:20:01;21.19;78.34
72326;DHT22;60278;47.980;18.780;2022-09-14T15:23:33;20.98;79.24
72326;DHT22;60278;47.980;18.780;2022-09-14T15:27:04;20.88;79.11
72326;DHT22;60278;47.980;18.780;2022-09-14T15:30:35;20.82;79.28
72326;DHT22;60278;47.980;18.780;2022-09-14T15:34:06;20.87;79.27
72326;DHT22;60278;47.980;18.780;2022-09-14T15:37:37;20.78;79.85
72326;DHT22;60278;47.980;18.780;2022-09-14T15:41:10;20.72;80.33
72326;DHT22;60278;47.980;18.780;2022-09-14T15:44:41;20.74;80.25
72326;DHT22;60278;47.980;18.780;2022-09-14T15:48:15;20.65;80.22
72326;DHT22;60278;47.980;18.780;2022-09-14T15:51:48;20.71;80.30
72326;DHT22;60278;47.980;18.780;2022-09-14T15:55:20;20.61;80.96
72326;DHT22;60278;47.980;18.780;2022-09-14T15:58:51;20.77;80.53
72326;DHT22;60278;47.980;18.780;2022-09-14T16:02:22;20.74;80.04
72326;DHT22;60278;47.980;18.780;2022-09-14T16:05:53;20.67;80.13
72326;DHT22;60278;47.980;18.780;2022-09-14T16:09:24;20.58;80.72
72326;DHT22;60278;47.980;18.780;2022-09-14T16:12:55;20.63;80.18
72326;DHT22;60278;47.980;18.780;2022-09-14T16:16:26;20.55;81.35
72326;DHT22;60278;47.980;18.780;2022-09-14T16:19:57;20.33;82.20
72326;DHT22;60278;47.980;18.780;2022-09-14T16:23:28;20.21;82.31
72326;DHT22;60278;47.980;18.780;2022-09-14T16:26:59;20.05;82.59
72326;DHT22;60278;47.980;18.780;2022-09-14T16:30:30;20.00;82.30
72326;DHT22;60278;47.980;18.780;2022-09-14T16:34:14;19.83;83.80
72326;DHT22;60278;47.980;18.780;2022-09-14T16:37:45;19.76;84.26
72326;DHT22;60278;47.980;18.780;2022-09-14T16:41:16;19.70;84.45
72326;DHT22;60278;47.980;18.780;2022-09-14T16:44:47;19.65;83.72
72326;DHT22;60278;47.980;18.780;2022-09-14T16:48:18;19.63;83.84
72326;DHT22;60278;47.980;18.780;2022-09-14T16:51:50;19.57;83.96
72326;DHT22;60278;47.980;18.780;2022-09-14T16:55:21;19.51;83.81
72326;DHT22;60278;47.980;18.780;2022-09-14T16:58:53;19.31;85.30
72326;DHT22;60278;47.980;18.780;2022-09-14T17:02:25;19.22;85.94
72326;DHT22;60278;47.980;18.780;2022-09-14T17:06:01;19.10;86.05
72326;DHT22;60278;47.980;18.780;2022-09-14T17:09:32;19.03;86.39
72326;DHT22;60278;47.980;18.780;2022-09-14T17:13:04;18.94;86.45
72326;DHT22;60278;47.980;18.780;2022-09-14T17:16:35;18.93;86.04
72326;DHT22;60278;47.980;18.780;2022-09-14T17:20:06;18.80;86.50
72326;DHT22;60278;47.980;18.780;2022-09-14T17:23:38;18.71;87.23
72326;DHT22;60278;47.980;18.780;2022-09-14T17:27:09;18.64;86.93
72326;DHT22;60278;47.980;18.780;2022-09-14T17:30:41;18.52;87.69
72326;DHT22;60278;47.980;18.780;2022-09-14T17:34:14;18.52;87.42
72326;DHT22;60278;47.980;18.780;2022-09-14T17:37:46;18.52;87.22
72326;DHT22;60278;47.980;18.780;2022-09-14T17:41:20;18.46;87.54
72326;DHT22;60278;47.980;18.780;2022-09-14T17:44:51;18.35;87.68
72326;DHT22;60278;47.980;18.780;2022-09-14T17:48:23;18.30;88.10
72326;DHT22;60278;47.980;18.780;2022-09-14T17:51:54;18.21;88.56
72326;DHT22;60278;47.980;18.780;2022-09-14T17:55:25;18.12;88.96
72326;DHT22;60278;47.980;18.780;2022-09-14T17:58:59;18.09;88.60
72326;DHT22;60278;47.980;18.780;2022-09-14T18:02:31;18.02;88.97
72326;DHT22;60278;47.980;18.780;2022-09-14T18:06:03;17.95;89.18
72326;DHT22;60278;47.980;18.780;2022-09-14T18:09:34;17.80;90.00
72326;DHT22;60278;47.980;18.780;2022-09-14T18:13:05;17.81;89.64
72326;DHT22;60278;47.980;18.780;2022-09-14T18:16:36;17.74;90.27
72326;DHT22;60278;47.980;18.780;2022-09-14T18:20:08;17.82;90.06
72326;DHT22;60278;47.980;18.780;2022-09-14T18:23:40;17.67;90.56
72326;DHT22;60278;47.980;18.780;2022-09-14T18:27:11;17.67;90.16
72326;DHT22;60278;47.980;18.780;2022-09-14T18:30:42;17.64;90.48
72326;DHT22;60278;47.980;18.780;2022-09-14T18:34:13;17.63;90.29
72326;DHT22;60278;47.980;18.780;2022-09-14T18:37:44;17.64;90.32
72326;DHT22;60278;47.980;18.780;2022-09-14T18:41:16;17.63;90.26
72326;DHT22;60278;47.980;18.780;2022-09-14T18:44:47;17.64;90.42
72326;DHT22;60278;47.980;18.780;2022-09-14T18:48:23;17.60;90.71
72326;DHT22;60278;47.980;18.780;2022-09-14T18:51:54;17.64;90.09
72326;DHT22;60278;47.980;18.780;2022-09-14T18:55:25;17.70;90.44
72326;DHT22;60278;47.980;18.780;2022-09-14T18:58:56;17.74;90.01
72326;DHT22;60278;47.980;18.780;2022-09-14T19:02:27;17.74;90.13
72326;DHT22;60278;47.980;18.780;2022-09-14T19:06:07;17.77;90.10
72326;DHT22;60278;47.980;18.780;2022-09-14T19:09:38;17.77;90.38
72326;DHT22;60278;47.980;18.780;2022-09-14T19:13:09;17.67;90.34
72326;DHT22;60278;47.980;18.780;2022-09-14T19:16:41;17.69;90.19
72326;DHT22;60278;47.980;18.780;2022-09-14T19:20:12;17.69;90.39
72326;DHT22;60278;47.980;18.780;2022-09-14T19:23:43;17.69;90.17
72326;DHT22;60278;47.980;18.780;2022-09-14T19:27:14;17.70;89.99
72326;DHT22;60278;47.980;18.780;2022-09-14T19:30:47;17.61;90.63
72326;DHT22;60278;47.980;18.780;2022-09-14T19:34:21;17.69;90.54
72326;DHT22;60278;47.980;18.780;2022-09-14T19:37:53;17.70;90.11
72326;DHT22;60278;47.980;18.780;2022-09-14T19:41:24;17.70;90.30
72326;DHT22;60278;47.980;18.780;2022-09-14T19:44:55;17.61;90.49
72326;DHT22;60278;47.980;18.780;2022-09-14T19:48:26;17.53;91.04
72326;DHT22;60278;47.980;18.780;2022-09-14T19:51:57;17.41;91.34
72326;DHT22;60278;47.980;18.780;2022-09-14T19:55:29;17.33;91.55
72326;DHT22;60278;47.980;18.780;2022-09-14T19:59:02;17.30;91.42
72326;DHT22;60278;47.980;18.780;2022-09-14T20:02:33;17.29;91.73
72326;DHT22;60278;47.980;18.780;2022-09-14T20:06:10;17.26;92.02
72326;DHT22;60278;47.980;18.780;2022-09-14T20:09:41;17.16;92.01
72326;DHT22;60278;47.980;18.780;2022-09-14T20:13:12;17.24;91.72
72326;DHT22;60278;47.980;18.780;2022-09-14T20:16:46;17.27;91.47
72326;DHT22;60278;47.980;18.780;2022-09-14T20:20:17;17.22;91.54
72326;DHT22;60278;47.980;18.780;2022-09-14T20:23:56;17.19;91.59
72326;DHT22;60278;47.980;18.780;2022-09-14T20:27:27;17.16;91.69
72326;DHT22;60278;47.980;18.780;2022-09-14T20:31:02;17.15;91.60
72326;DHT22;60278;47.980;18.780;2022-09-14T20:34:33;17.13;91.63
72326;DHT22;60278;47.980;18.780;2022-09-14T20:38:04;17.12;91.82
72326;DHT22;60278;47.980;18.780;2022-09-14T20:41:36;17.12;91.77
72326;DHT22;60278;47.980;18.780;2022-09-14T20:45:07;17.24;91.30
72326;DHT22;60278;47.980;18.780;2022-09-14T20:48:39;17.19;91.19
72326;DHT22;60278;47.980;18.780;2022-09-14T20:52:10;17.26;91.44
72326;DHT22;60278;47.980;18.780;2022-09-14T20:55:41;17.23;91.22
72326;DHT22;60278;47.980;18.780;2022-09-14T20:59:14;17.26;91.44
72326;DHT22;60278;47.980;18.780;2022-09-14T21:02:50;17.33;90.79
72326;DHT22;60278;47.980;18.780;2022-09-14T21:06:24;17.34;90.92
72326;DHT22;60278;47.980;18.780;2022-09-14T21:09:55;17.37;90.60
72326;DHT22;60278;47.980;18.780;2022-09-14T21:13:26;17.43;90.58
72326;DHT22;60278;47.980;18.780;2022-09-14T21:16:57;17.41;90.50
72326;DHT22;60278;47.980;18.780;2022-09-14T21:20:28;17.41;90.36
72326;DHT22;60278;47.980;18.780;2022-09-14T21:24:00;17.36;90.72
72326;DHT22;60278;47.980;18.780;2022-09-14T21:27:31;17.39;90.35
72326;DHT22;60278;47.980;18.780;2022-09-14T21:34:34;17.39;90.38
72326;DHT22;60278;47.980;18.780;2022-09-14T21:38:05;17.39;90.26
72326;DHT22;60278;47.980;18.780;2022-09-14T21:41:37;17.30;90.81
72326;DHT22;60278;47.980;18.780;2022-09-14T21:45:10;17.39;90.55
72326;DHT22;60278;47.980;18.780;2022-09-14T21:48:41;17.29;91.12
72326;DHT22;60278;47.980;18.780;2022-09-14T21:52:12;17.30;91.41
72326;DHT22;60278;47.980;18.780;2022-09-14T21:55:43;17.22;93.16
72326;DHT22;60278;47.980;18.780;2022-09-14T21:59:17;17.08;93.69
72326;DHT22;60278;47.980;18.780;2022-09-14T22:02:49;16.83;95.42
72326;DHT22;60278;47.980;18.780;2022-09-14T22:06:22;16.73;96.74
72326;DHT22;60278;47.980;18.780;2022-09-14T22:09:53;16.88;96.13
72326;DHT22;60278;47.980;18.780;2022-09-14T22:13:24;16.95;96.22
72326;DHT22;60278;47.980;18.780;2022-09-14T22:16:56;16.79;97.14
72326;DHT22;60278;47.980;18.780;2022-09-14T22:20:27;16.78;97.11
72326;DHT22;60278;47.980;18.780;2022-09-14T22:24:00;16.96;95.79
72326;DHT22;60278;47.980;18.780;2022-09-14T22:27:31;16.95;95.78
72326;DHT22;60278;47.980;18.780;2022-09-14T22:31:03;16.95;95.50
72326;DHT22;60278;47.980;18.780;2022-09-14T22:34:34;16.91;95.69
72326;DHT22;60278;47.980;18.780;2022-09-14T22:38:05;16.81;96.13
72326;DHT22;60278;47.980;18.780;2022-09-14T22:41:38;16.75;96.36
72326;DHT22;60278;47.980;18.780;2022-09-14T22:45:09;16.71;96.91
72326;DHT22;60278;47.980;18.780;2022-09-14T22:48:40;16.81;97.12
72326;DHT22;60278;47.980;18.780;2022-09-14T22:52:11;16.88;96.79
72326;DHT22;60278;47.980;18.780;2022-09-14T22:55:43;16.89;97.54
72326;DHT22;60278;47.980;18.780;2022-09-14T22:59:14;16.62;98.12
72326;DHT22;60278;47.980;18.780;2022-09-14T23:02:45;16.62;98.35
72326;DHT22;60278;47.980;18.780;2022-09-14T23:06:16;16.75;98.20
72326;DHT22;60278;47.980;18.780;2022-09-14T23:09:47;16.78;98.74
72326;DHT22;60278;47.980;18.780;2022-09-14T23:13:18;16.69;98.38
72326;DHT22;60278;47.980;18.780;2022-09-14T23:16:50;16.57;98.92
72326;DHT22;60278;47.980;18.780;2022-09-14T23:20:21;16.52;98.81
72326;DHT22;60278;47.980;18.780;2022-09-14T23:23:53;16.47;99.25
72326;DHT22;60278;47.980;18.780;2022-09-14T23:27:25;16.57;99.34
72326;DHT22;60278;47.980;18.780;2022-09-14T23:30:56;16.62;99.24
72326;DHT22;60278;47.980;18.780;2022-09-14T23:34:27;16.64;99.26
72326;DHT22;60278;47.980;18.780;2022-09-14T23:37:58;16.67;99.57
72326;DHT22;60278;47.980;18.780;2022-09-14T23:41:29;16.83;98.94
72326;DHT22;60278;47.980;18.780;2022-09-14T23:45:00;16.83;98.91
72326;DHT22;60278;47.980;18.780;2022-09-14T23:48:33;16.82;99.32
72326;DHT22;60278;47.980;18.780;2022-09-14T23:52:04;16.72;99.58
72326;DHT22;60278;47.980;18.780;2022-09-14T23:55:35;16.71;99.58
72326;DHT22;60278;47.980;18.780;2022-09-14T23:59:10;16.69;99.67
